Time;durP1;ratioP1;P1;durP2;ratioP2;P2;SDS_P1;SDS_P2;PMS_P1;PMS_P2;Temp;Humidity;BMP_temperature;BMP_pressure;BME280_temperature;BME280_humidity;BME280_pressure;Samples;Min_cycle;Max_cycle;Signal;HPM_P1;HPM_P2
2023/05/14 00:04:59;;;;;;;12.35;8.32;;;10.80;99.90;;;;;;2611586;54;19958;31
2023/05/14 00:07:34;;;;;;;14.33;9.40;;;10.70;99.90;;;;;;2622083;46;20778;31
2023/05/14 00:10:14;;;;;;;19.20;10.43;;;10.70;99.90;;;;;;2603368;54;20056;31
2023/05/14 00:13:03;;;;;;;14.95;9.65;;;10.60;99.90;;;;;;2602492;54;20030;31
2023/05/14 00:15:39;;;;;;;12.70;8.80;;;10.60;99.90;;;;;;2603224;54;20031;31
2023/05/14 00:40:19;;;;;;;11.20;7.97;;;10.50;99.90;;;;;;2602622;54;20038;31
2023/05/14 00:42:58;;;;;;;13.95;8.30;;;10.50;99.90;;;;;;2603164;54;20042;31
2023/05/14 00:48:33;;;;;;;10.40;6.85;;;10.50;99.90;;;;;;2602659;54;20838;31
2023/05/14 00:51:18;;;;;;;11.18;7.97;;;10.50;99.90;;;;;;2602485;54;20182;31
2023/05/14 00:53:54;;;;;;;11.57;8.65;;;10.50;99.90;;;;;;2602365;54;20132;31
2023/05/14 00:56:39;;;;;;;15.45;9.23;;;10.50;99.90;;;;;;2603138;54;20488;31
2023/05/14 01:02:07;;;;;;;12.85;9.40;;;10.50;99.90;;;;;;2602161;54;20920;31
2023/05/14 01:04:47;;;;;;;11.50;8.38;;;10.40;99.90;;;;;;2602323;54;20145;31
2023/05/14 01:26:08;;;;;;;9.73;6.88;;;10.50;99.90;;;;;;2610466;54;19997;31
2023/05/14 01:28:43;;;;;;;11.75;7.05;;;10.60;99.90;;;;;;2602293;54;20034;31
2023/05/14 01:31:23;;;;;;;11.38;7.70;;;10.60;99.90;;;;;;2621459;46;20037;31
2023/05/14 01:33:59;;;;;;;8.73;7.28;;;10.60;99.90;;;;;;2603252;54;20913;31
2023/05/14 01:36:38;;;;;;;15.50;7.60;;;10.60;99.90;;;;;;2603136;54;20037;31
2023/05/14 01:41:55;;;;;;;11.18;6.70;;;10.70;99.90;;;;;;2602887;54;20854;31
2023/05/14 01:44:32;;;;;;;13.20;8.30;;;10.70;99.90;;;;;;2602648;54;20054;31
2023/05/14 01:47:09;;;;;;;13.00;7.38;;;10.70;99.90;;;;;;2615772;46;19942;31
2023/05/14 01:49:45;;;;;;;11.13;6.55;;;10.70;99.90;;;;;;2602983;54;20912;31
2023/05/14 01:52:24;;;;;;;8.40;6.43;;;10.70;99.90;;;;;;2621435;46;20030;31
2023/05/14 01:55:01;;;;;;;8.90;6.25;;;10.70;99.90;;;;;;2602948;54;22307;31
2023/05/14 01:57:39;;;;;;;12.57;6.82;;;10.70;99.90;;;;;;2603035;54;20037;31
2023/05/14 02:00:17;;;;;;;9.23;6.78;;;10.70;99.90;;;;;;2617439;39;21236;31
2023/05/14 02:02:52;;;;;;;7.13;6.13;;;10.70;99.90;;;;;;2602942;54;20026;31
2023/05/14 02:05:33;;;;;;;9.10;6.70;;;10.80;99.90;;;;;;2621604;46;20907;31
2023/05/14 02:08:08;;;;;;;9.38;6.97;;;10.80;99.90;;;;;;2621895;46;20132;31
2023/05/14 02:10:46;;;;;;;9.48;5.22;;;10.70;99.90;;;;;;2602933;54;20027;31
2023/05/14 02:13:24;;;;;;;11.17;6.63;;;10.80;99.90;;;;;;2602823;54;20785;31
2023/05/14 02:16:02;;;;;;;7.70;6.38;;;10.80;99.90;;;;;;2601971;54;20916;31
2023/05/14 02:18:38;;;;;;;7.85;6.07;;;10.80;99.90;;;;;;2612337;46;20034;31
2023/05/14 02:21:16;;;;;;;9.52;6.70;;;10.80;99.90;;;;;;2602951;54;20038;31
2023/05/14 03:17:41;;;;;;;10.10;7.43;;;10.50;99.90;;;;;;2630494;46;20026;31
2023/05/14 03:20:21;;;;;;;12.93;8.10;;;10.50;99.90;;;;;;2601943;54;20038;31
2023/05/14 03:22:59;;;;;;;10.32;7.82;;;10.40;99.90;;;;;;2601674;54;20027;31
2023/05/14 03:25:36;;;;;;;14.13;7.50;;;10.40;99.90;;;;;;2602816;54;20835;31
2023/05/14 03:28:11;;;;;;;12.23;7.07;;;10.40;99.90;;;;;;2602647;54;20858;31
2023/05/14 03:30:49;;;;;;;13.82;8.52;;;10.40;99.90;;;;;;2602849;54;20907;31
2023/05/14 03:33:30;;;;;;;11.15;7.85;;;10.40;99.90;;;;;;2616178;46;20030;31
2023/05/14 03:36:08;;;;;;;11.75;8.27;;;10.40;99.90;;;;;;2617029;39;20358;31
2023/05/14 03:38:44;;;;;;;11.80;8.65;;;10.40;99.90;;;;;;2608053;39;20438;31
2023/05/14 03:41:22;;;;;;;10.35;7.60;;;10.40;99.90;;;;;;2628147;39;21207;31
2023/05/14 03:43:57;;;;;;;11.65;8.40;;;10.40;99.90;;;;;;2628982;39;20389;31
2023/05/14 03:46:35;;;;;;;13.48;8.25;;;10.50;99.90;;;;;;2621031;47;20908;31
2023/05/14 03:49:14;;;;;;;12.10;8.20;;;10.50;99.90;;;;;;2602662;54;20100;31
2023/05/14 03:51:52;;;;;;;11.30;8.18;;;10.70;99.90;;;;;;2602577;54;20057;31
2023/05/14 03:54:30;;;;;;;13.15;8.15;;;10.80;99.90;;;;;;2602859;54;20026;31
2023/05/14 03:57:10;;;;;;;9.00;7.37;;;10.90;99.90;;;;;;2602877;54;20050;31
2023/05/14 03:59:48;;;;;;;12.20;8.27;;;11.00;99.90;;;;;;2602605;54;21002;31
2023/05/14 04:02:24;;;;;;;13.82;8.88;;;11.10;99.90;;;;;;2602702;54;21170;31
2023/05/14 04:05:07;;;;;;;13.23;9.07;;;11.30;99.90;;;;;;2621145;47;20752;31
2023/05/14 04:07:42;;;;;;;13.00;9.30;;;11.40;99.90;;;;;;2602798;54;20883;31
2023/05/14 04:10:17;;;;;;;15.82;9.07;;;11.50;99.90;;;;;;2620897;47;20046;31
2023/05/14 04:12:55;;;;;;;14.15;9.50;;;11.70;99.90;;;;;;2602456;54;20880;31
2023/05/14 04:15:38;;;;;;;16.20;9.90;;;11.80;99.90;;;;;;2602653;54;19947;31
2023/05/14 04:20:56;;;;;;;12.63;9.60;;;12.10;99.90;;;;;;2602649;54;20022;31
2023/05/14 04:23:33;;;;;;;13.60;9.63;;;12.20;99.90;;;;;;2602315;54;20114;31
2023/05/14 04:26:08;;;;;;;14.57;10.35;;;12.30;99.90;;;;;;2620779;47;20037;31
2023/05/14 04:28:46;;;;;;;;;;;12.50;99.90;;;;;;2602971;54;20048;31
2023/05/14 04:31:24;;;;;;;14.50;9.20;;;12.60;99.90;;;;;;2602528;54;20295;31
2023/05/14 04:36:49;;;;;;;13.65;9.63;;;13.00;99.90;;;;;;2602599;54;20069;31
2023/05/14 04:39:26;;;;;;;13.85;9.32;;;13.20;99.90;;;;;;2603424;54;20784;31
2023/05/14 04:42:05;;;;;;;13.00;10.02;;;13.40;99.90;;;;;;2603269;54;20049;31
2023/05/14 04:44:47;;;;;;;11.30;9.00;;;13.60;99.90;;;;;;2603383;54;20139;31
2023/05/14 05:36:16;;;;;;;12.00;8.75;;;16.30;99.90;;;;;;2634271;39;20257;31
2023/05/14 05:38:52;;;;;;;11.27;9.00;;;16.40;99.90;;;;;;2603141;54;20891;31
2023/05/14 05:41:29;;;;;;;13.65;8.10;;;16.40;99.90;;;;;;2603419;54;20053;31
2023/05/14 05:44:08;;;;;;;15.48;9.43;;;16.50;99.90;;;;;;2603369;54;20081;31
2023/05/14 05:46:45;;;;;;;10.68;8.15;;;16.60;99.90;;;;;;2602891;54;20030;31
2023/05/14 05:49:23;;;;;;;13.95;8.68;;;16.50;99.90;;;;;;2602991;54;20873;31
2023/05/14 05:54:38;;;;;;;11.20;7.53;;;16.60;99.90;;;;;;2621403;46;20106;31
2023/05/14 06:00:30;;;;;;;10.43;7.75;;;16.90;99.90;;;;;;2608060;46;20897;31
2023/05/14 06:05:59;;;;;;;12.50;8.30;;;17.20;99.90;;;;;;2602156;54;20879;31
2023/05/14 06:36:24;;;;;;;9.90;7.47;;;16.70;99.90;;;;;;2602108;54;20882;31
2023/05/14 06:39:23;;;;;;;10.45;7.28;;;16.60;99.90;;;;;;2602129;54;20065;31
2023/05/14 10:24:08;;;;;;;1.83;1.10;;;21.50;89.80;;;;;;2602582;54;20022;31
2023/05/14 11:37:04;;;;;;;1.00;0.60;;;23.00;81.90;;;;;;2621546;46;20089;31
2023/05/14 12:13:13;;;;;;;2.08;1.00;;;23.20;81.10;;;;;;2604488;54;19935;31
2023/05/14 12:16:13;;;;;;;2.65;1.10;;;23.10;81.10;;;;;;2604706;54;20485;31
2023/05/14 12:22:38;;;;;;;;;;;;;;;;;;;;;
2023/05/14 12:25:52;;;;;;;3.08;1.25;;;23.10;82.10;;;;;;2604366;54;20060;31
2023/05/14 12:32:10;;;;;;;2.25;0.95;;;23.00;79.60;;;;;;2612763;46;20808;31
2023/05/14 12:42:09;;;;;;;2.17;0.90;;;22.60;80.70;;;;;;2602600;54;22155;31
2023/05/14 12:45:17;;;;;;;1.90;1.08;;;22.40;80.60;;;;;;2604191;54;20766;31
2023/05/14 12:48:36;;;;;;;3.07;1.10;;;22.30;81.80;;;;;;2604469;54;20034;31
2023/05/14 13:26:25;;;;;;;3.10;1.53;;;22.30;84.10;;;;;;2602603;54;20034;31
2023/05/14 13:38:00;;;;;;;3.50;2.20;;;22.10;85.40;;;;;;2602504;54;20030;31
2023/05/14 13:44:36;;;;;;;5.90;2.25;;;22.20;84.30;;;;;;2603305;54;20101;31
2023/05/14 13:47:40;;;;;;;4.20;2.80;;;22.10;83.20;;;;;;2602992;54;20030;31
2023/05/14 13:50:33;;;;;;;;;;;22.10;84.10;;;;;;2621160;46;20337;31
2023/05/14 13:53:20;;;;;;;2.47;1.90;;;22.00;85.10;;;;;;2621675;46;20725;31
2023/05/14 14:05:30;;;;;;;3.75;2.40;;;21.80;85.30;;;;;;2603043;54;20030;31
2023/05/14 14:14:31;;;;;;;4.82;2.90;;;21.80;81.10;;;;;;2602969;54;20042;31
2023/05/14 14:17:37;;;;;;;2.88;2.25;;;21.70;79.40;;;;;;2621878;46;20029;31
2023/05/14 14:22:51;;;;;;;5.40;2.80;;;21.50;81.40;;;;;;2621210;46;20022;31
2023/05/14 14:25:38;;;;;;;5.60;2.67;;;21.50;82.00;;;;;;2607039;46;20843;31
2023/05/14 14:28:33;;;;;;;4.05;3.15;;;21.50;82.30;;;;;;2602816;54;20046;31
2023/05/14 14:31:17;;;;;;;4.40;2.67;;;21.40;82.70;;;;;;2602982;54;20057;31
2023/05/14 14:34:28;;;;;;;5.90;2.83;;;21.40;83.40;;;;;;2603368;54;19958;31
2023/05/14 14:37:08;;;;;;;3.60;2.80;;;21.40;85.30;;;;;;2621717;46;20042;31
2023/05/14 14:39:48;;;;;;;6.00;3.47;;;21.40;85.30;;;;;;2603050;54;20022;31
2023/05/14 14:42:48;;;;;;;4.85;3.50;;;21.30;86.10;;;;;;2603017;54;20026;31
2023/05/14 14:48:23;;;;;;;6.13;3.80;;;21.00;88.10;;;;;;2602471;54;20958;31
2023/05/14 14:51:13;;;;;;;6.38;4.25;;;20.90;89.40;;;;;;2603011;54;20807;31
2023/05/14 14:54:05;;;;;;;5.00;3.90;;;20.90;88.30;;;;;;2602961;54;20026;31
2023/05/14 14:56:57;;;;;;;4.13;3.47;;;20.80;88.80;;;;;;2603138;54;20920;31
2023/05/14 14:59:40;;;;;;;4.55;3.75;;;20.80;90.00;;;;;;2602722;54;20375;31
2023/05/14 15:02:23;;;;;;;4.85;3.70;;;20.70;89.10;;;;;;2602829;54;20029;31
2023/05/14 15:05:12;;;;;;;7.18;3.70;;;20.70;88.90;;;;;;2602827;54;20030;31
2023/05/14 15:08:24;;;;;;;6.80;4.30;;;20.70;89.50;;;;;;2602736;54;20200;31
2023/05/14 15:14:03;;;;;;;5.38;3.50;;;20.60;89.60;;;;;;2603056;54;20830;31
2023/05/14 15:16:58;;;;;;;4.40;3.28;;;20.50;88.20;;;;;;2602122;54;20040;31
2023/05/14 15:19:35;;;;;;;11.63;4.20;;;20.40;87.50;;;;;;2608024;39;21474;31
2023/05/14 15:28:43;;;;;;;5.05;2.80;;;20.30;88.00;;;;;;2610557;54;20022;31
2023/05/14 15:31:31;;;;;;;;;;;20.30;88.80;;;;;;2603161;54;20038;31
2023/05/14 15:43:26;;;;;;;3.78;3.33;;;20.30;87.50;;;;;;2602218;54;20951;31
2023/05/14 15:46:07;;;;;;;5.60;3.17;;;20.30;87.30;;;;;;2607750;39;20335;31
2023/05/14 15:52:09;;;;;;;5.57;3.70;;;20.30;89.10;;;;;;2610608;54;20045;31
2023/05/14 15:57:38;;;;;;;3.97;3.17;;;20.30;90.20;;;;;;2602691;54;20053;31
2023/05/14 16:03:24;;;;;;;9.27;3.80;;;20.40;89.90;;;;;;2620943;47;20927;31
2023/05/14 16:06:04;;;;;;;6.43;3.03;;;20.40;88.50;;;;;;2621361;47;20046;31
2023/05/14 16:08:42;;;;;;;5.97;3.10;;;20.40;87.40;;;;;;2602585;54;20125;31
2023/05/14 16:11:22;;;;;;;6.28;3.38;;;20.40;87.40;;;;;;2620679;47;20881;31
2023/05/14 16:14:05;;;;;;;4.77;3.40;;;20.40;87.10;;;;;;2602727;54;20041;31
2023/05/14 16:16:46;;;;;;;5.00;3.28;;;20.30;86.90;;;;;;2602459;54;20030;31
2023/05/14 16:19:27;;;;;;;4.22;3.20;;;20.20;88.10;;;;;;2602501;54;20703;31
2023/05/14 16:22:08;;;;;;;5.15;3.30;;;20.20;88.80;;;;;;2602654;54;20034;31
2023/05/14 16:24:45;;;;;;;4.20;3.42;;;20.20;88.60;;;;;;2602644;54;20929;31
2023/05/14 16:27:22;;;;;;;5.55;3.15;;;20.20;88.80;;;;;;2602530;54;20793;31
2023/05/14 16:30:13;;;;;;;5.65;3.53;;;20.10;88.90;;;;;;2602578;54;20749;31
2023/05/14 16:32:54;;;;;;;4.90;3.80;;;20.10;89.80;;;;;;2603552;54;20030;31
2023/05/14 16:35:38;;;;;;;7.20;3.57;;;20.10;90.20;;;;;;2603265;54;20892;31
2023/05/14 16:38:15;;;;;;;6.53;3.70;;;20.00;90.10;;;;;;2603116;54;21189;31
2023/05/14 16:40:56;;;;;;;6.95;4.65;;;20.10;90.30;;;;;;2602397;54;20040;31
2023/05/14 16:43:33;;;;;;;5.38;3.80;;;20.10;90.40;;;;;;2602676;54;20931;31
2023/05/14 16:46:10;;;;;;;6.10;4.20;;;20.10;90.20;;;;;;2621597;46;20026;31
2023/05/14 16:48:53;;;;;;;6.20;3.95;;;20.10;90.30;;;;;;2621840;46;20162;31
2023/05/14 16:51:41;;;;;;;7.13;3.85;;;20.10;90.40;;;;;;2603310;54;20030;31
2023/05/14 16:54:19;;;;;;;4.55;3.65;;;20.10;90.70;;;;;;2608277;39;20331;31
2023/05/14 16:56:58;;;;;;;5.22;3.85;;;20.10;91.00;;;;;;2602349;54;20909;31
2023/05/14 16:59:34;;;;;;;6.47;4.63;;;20.10;91.00;;;;;;2602943;54;20037;31
2023/05/14 17:02:18;;;;;;;6.07;4.00;;;20.00;91.20;;;;;;2603274;54;20109;31
2023/05/14 17:04:56;;;;;;;6.57;4.37;;;19.90;91.30;;;;;;2603197;54;20150;31
2023/05/14 17:07:36;;;;;;;5.85;4.00;;;20.00;92.10;;;;;;2603052;54;20030;31
2023/05/14 17:10:15;;;;;;;6.40;3.92;;;19.90;91.90;;;;;;2603221;54;20718;31
2023/05/14 17:12:51;;;;;;;6.82;3.50;;;19.90;91.70;;;;;;2621668;46;20919;31
2023/05/14 17:15:29;;;;;;;6.75;4.10;;;19.90;91.90;;;;;;2603151;54;20074;31
2023/05/14 17:18:07;;;;;;;5.80;4.23;;;19.90;91.90;;;;;;2602876;54;20081;31
2023/05/14 17:20:44;;;;;;;5.75;4.20;;;19.90;92.20;;;;;;2621878;46;20250;31
2023/05/14 17:26:15;;;;;;;6.15;3.40;;;19.90;92.90;;;;;;2621605;46;20027;31
2023/05/14 17:28:53;;;;;;;4.38;3.85;;;19.80;92.50;;;;;;2603051;54;20826;31
2023/05/14 17:31:35;;;;;;;6.30;4.38;;;19.80;92.40;;;;;;2621523;46;20137;31
2023/05/14 17:34:13;;;;;;;12.63;4.88;;;19.80;92.90;;;;;;2602994;54;21448;31
2023/05/14 17:37:20;;;;;;;6.35;4.70;;;19.80;93.10;;;;;;2603070;54;19941;31
2023/05/14 17:40:17;;;;;;;16.40;5.18;;;19.70;93.10;;;;;;2603283;54;20909;31
2023/05/14 17:52:13;;;;;;;20.27;6.30;;;19.80;95.80;;;;;;2621516;46;19950;31
2023/05/14 17:54:50;;;;;;;34.55;6.45;;;19.80;96.80;;;;;;2603194;54;20034;31
2023/05/14 17:57:28;;;;;;;28.20;5.50;;;19.80;97.80;;;;;;2603218;54;20026;31
2023/05/14 18:00:03;;;;;;;26.85;7.30;;;19.80;97.60;;;;;;2621198;46;20450;31
2023/05/14 18:02:51;;;;;;;19.08;6.68;;;19.80;98.00;;;;;;2603032;54;20902;31
2023/05/14 18:05:31;;;;;;;18.52;6.97;;;19.80;96.80;;;;;;2603149;54;20907;31
2023/05/14 18:08:08;;;;;;;42.97;8.10;;;19.70;97.20;;;;;;2603095;54;20822;31
2023/05/14 18:10:44;;;;;;;34.00;6.90;;;19.70;98.80;;;;;;2620866;46;20073;31
2023/05/14 18:13:40;;;;;;;15.05;6.20;;;19.70;99.80;;;;;;2621094;46;20834;31
2023/05/14 18:16:23;;;;;;;16.55;6.05;;;19.70;99.60;;;;;;2602995;54;20042;31
2023/05/14 18:19:03;;;;;;;13.95;6.15;;;19.60;99.90;;;;;;2602994;54;20030;31
2023/05/14 18:21:57;;;;;;;19.15;8.00;;;19.50;99.90;;;;;;2603081;54;24434;31
2023/05/14 18:24:37;;;;;;;17.17;7.68;;;19.40;99.90;;;;;;2621266;46;20838;31
2023/05/14 18:27:14;;;;;;;15.85;7.20;;;19.30;99.90;;;;;;2621529;46;20026;31
2023/05/14 18:29:53;;;;;;;15.47;6.60;;;19.20;99.90;;;;;;2602938;54;20253;31
2023/05/14 18:32:30;;;;;;;13.95;8.35;;;19.10;99.90;;;;;;2602833;54;20809;31
2023/05/14 18:35:06;;;;;;;20.67;8.55;;;19.00;99.90;;;;;;2602790;54;20880;31
2023/05/14 18:37:42;;;;;;;17.80;8.15;;;19.00;99.90;;;;;;2602788;54;20452;31
2023/05/14 18:40:17;;;;;;;14.90;8.10;;;18.90;99.90;;;;;;2602919;54;20768;31
2023/05/14 18:42:55;;;;;;;13.50;7.77;;;18.80;99.90;;;;;;2602923;54;20089;31
2023/05/14 18:45:33;;;;;;;9.15;6.88;;;18.80;99.90;;;;;;2602883;54;20859;31
2023/05/14 18:48:09;;;;;;;11.30;7.13;;;18.70;99.90;;;;;;2621070;46;20957;31
2023/05/14 18:50:46;;;;;;;13.73;7.63;;;18.70;99.90;;;;;;2620807;46;20459;31
2023/05/14 18:56:21;;;;;;;25.53;8.63;;;18.60;99.90;;;;;;2603187;54;20053;31
2023/05/14 18:59:03;;;;;;;79.28;14.13;;;18.60;99.90;;;;;;2621373;46;20108;31
2023/05/14 19:01:42;;;;;;;37.95;10.75;;;18.60;99.90;;;;;;2603049;54;20862;31
2023/05/14 19:26:42;;;;;;;15.68;9.60;;;18.10;99.90;;;;;;2601962;54;20892;31
2023/05/14 19:29:23;;;;;;;11.63;8.70;;;18.00;99.90;;;;;;2602576;54;20038;31
2023/05/14 19:32:04;;;;;;;12.60;9.10;;;17.90;99.90;;;;;;2602714;54;20065;31
2023/05/14 19:34:43;;;;;;;14.98;9.20;;;17.70;99.90;;;;;;2601617;54;21495;31
2023/05/14 19:37:22;;;;;;;14.25;9.25;;;17.60;99.90;;;;;;2601677;54;20048;31
2023/05/14 19:40:06;;;;;;;13.65;8.68;;;17.50;99.90;;;;;;2601866;54;20934;31
2023/05/14 19:42:46;;;;;;;15.25;9.38;;;17.40;99.90;;;;;;2601840;54;20448;31
2023/05/14 19:45:23;;;;;;;11.38;7.65;;;17.30;99.90;;;;;;2601833;54;20878;31
2023/05/14 19:51:09;;;;;;;11.93;8.43;;;17.20;99.90;;;;;;2610675;54;20027;31
2023/05/14 19:54:03;;;;;;;10.85;8.30;;;17.20;99.90;;;;;;2602906;54;20267;31
2023/05/14 19:57:08;;;;;;;10.52;7.93;;;17.10;99.90;;;;;;2602560;54;20834;31
2023/05/14 19:59:52;;;;;;;7.90;7.10;;;17.00;99.90;;;;;;2602368;54;20406;31
2023/05/14 20:02:27;;;;;;;12.70;8.20;;;17.00;99.90;;;;;;2602581;54;20878;31
2023/05/14 20:05:05;;;;;;;11.63;9.10;;;17.00;99.90;;;;;;2602547;54;20093;31
2023/05/14 20:07:47;;;;;;;11.05;7.90;;;16.90;99.90;;;;;;2621979;46;20061;31
2023/05/14 20:10:22;;;;;;;10.15;8.10;;;16.90;99.90;;;;;;2603066;54;25025;31
2023/05/14 20:12:58;;;;;;;10.90;8.63;;;16.80;99.90;;;;;;2648041;39;21564;31
2023/05/14 20:15:37;;;;;;;10.68;7.97;;;16.80;99.90;;;;;;2621625;46;20894;31
2023/05/14 20:18:15;;;;;;;10.93;8.45;;;16.70;99.90;;;;;;2621080;46;20945;31
2023/05/14 20:20:53;;;;;;;10.65;8.35;;;16.60;99.90;;;;;;2608851;39;21381;31
2023/05/14 20:23:28;;;;;;;9.75;8.48;;;16.70;99.90;;;;;;2603348;54;20503;31
2023/05/14 20:26:08;;;;;;;10.63;8.02;;;16.60;99.90;;;;;;2603181;54;20053;31
2023/05/14 20:28:45;;;;;;;10.93;9.18;;;16.60;99.90;;;;;;2602901;54;20048;31
2023/05/14 20:31:27;;;;;;;10.63;8.35;;;16.60;99.90;;;;;;2621542;46;20026;31
2023/05/14 20:34:04;;;;;;;11.40;8.05;;;16.70;99.90;;;;;;2603345;54;20124;31
2023/05/14 20:36:43;;;;;;;9.65;8.40;;;16.60;99.90;;;;;;2621111;46;20388;31
2023/05/14 20:39:26;;;;;;;11.88;8.10;;;16.60;99.90;;;;;;2618969;39;20358;31
2023/05/14 20:42:04;;;;;;;10.60;7.80;;;16.60;99.90;;;;;;2602427;54;20125;31
2023/05/14 20:44:41;;;;;;;10.98;7.20;;;16.60;99.90;;;;;;2602978;54;20997;31
2023/05/14 20:47:32;;;;;;;10.25;8.55;;;16.60;99.90;;;;;;2621667;46;20839;31
2023/05/14 20:53:05;;;;;;;12.65;9.15;;;16.60;99.90;;;;;;2603170;54;20069;31
2023/05/14 20:55:43;;;;;;;9.67;8.73;;;16.60;99.90;;;;;;2603346;54;20050;31
2023/05/14 20:58:28;;;;;;;12.00;10.20;;;16.50;99.90;;;;;;2602429;54;20916;31
2023/05/14 21:01:25;;;;;;;11.45;10.25;;;16.40;99.90;;;;;;2614990;46;20760;31
2023/05/14 21:04:10;;;;;;;11.60;10.50;;;16.40;99.90;;;;;;2621286;46;20042;31
2023/05/14 21:09:30;;;;;;;12.60;10.52;;;16.20;99.90;;;;;;2603358;54;19976;31
2023/05/14 21:12:15;;;;;;;14.10;10.60;;;16.10;99.90;;;;;;2603400;54;20755;31
2023/05/14 21:17:31;;;;;;;10.60;9.45;;;16.10;99.90;;;;;;2620598;46;20029;31
2023/05/14 21:20:14;;;;;;;15.38;9.80;;;16.10;99.90;;;;;;2621882;46;20778;31
2023/05/14 21:22:55;;;;;;;12.45;10.65;;;16.10;99.90;;;;;;2603540;54;20053;31
2023/05/14 21:25:36;;;;;;;12.30;10.98;;;16.10;99.90;;;;;;2608884;39;22210;31
2023/05/14 21:28:22;;;;;;;14.32;11.00;;;16.00;99.90;;;;;;2615636;46;20093;31
2023/05/14 21:31:00;;;;;;;15.75;11.43;;;16.00;99.90;;;;;;2603204;54;20053;31
2023/05/14 21:33:40;;;;;;;12.43;10.33;;;16.00;99.90;;;;;;2604723;39;20397;31
2023/05/14 21:36:28;;;;;;;12.57;10.48;;;15.90;99.90;;;;;;2603032;54;20005;31
2023/05/14 21:39:19;;;;;;;17.50;12.30;;;15.90;99.90;;;;;;2620256;46;20861;31
2023/05/14 21:42:03;;;;;;;13.00;10.43;;;15.80;99.90;;;;;;2603429;54;20841;31
2023/05/14 21:44:40;;;;;;;14.10;11.50;;;15.80;99.90;;;;;;2621631;46;19934;31
2023/05/14 21:47:27;;;;;;;17.48;13.60;;;15.70;99.90;;;;;;2603276;54;20027;31
2023/05/14 21:50:03;;;;;;;14.65;11.80;;;15.60;99.90;;;;;;2603068;54;20796;31
2023/05/14 21:52:57;;;;;;;14.27;11.33;;;15.50;99.90;;;;;;2621328;46;20894;31
2023/05/14 21:55:43;;;;;;;15.98;13.32;;;15.50;99.90;;;;;;2603272;54;20262;31
2023/05/14 21:58:20;;;;;;;17.55;13.88;;;15.50;99.90;;;;;;2603184;54;20034;31
2023/05/14 22:00:59;;;;;;;14.77;13.17;;;15.40;99.90;;;;;;2602876;54;20046;31
2023/05/14 22:03:40;;;;;;;13.77;12.13;;;15.30;99.90;;;;;;2603275;54;19942;31
2023/05/14 22:06:19;;;;;;;16.88;14.70;;;15.30;99.90;;;;;;2603234;54;20053;31
2023/05/14 22:09:05;;;;;;;16.95;11.75;;;15.30;99.90;;;;;;2621497;46;20864;31
2023/05/14 22:11:46;;;;;;;15.73;13.48;;;15.30;99.90;;;;;;2603061;54;20030;31
2023/05/14 22:14:25;;;;;;;15.77;13.60;;;15.30;99.90;;;;;;2603180;54;20049;31
2023/05/14 22:17:01;;;;;;;20.45;17.50;;;15.30;99.90;;;;;;2602865;54;20903;31
2023/05/14 22:19:38;;;;;;;16.92;14.75;;;15.20;99.90;;;;;;2603162;54;20026;31
2023/05/14 22:22:15;;;;;;;17.37;15.57;;;15.20;99.90;;;;;;2621456;46;20227;31
2023/05/14 22:25:04;;;;;;;28.13;14.70;;;15.10;99.90;;;;;;2621795;46;19954;31
2023/05/14 22:27:54;;;;;;;17.50;12.35;;;15.10;99.90;;;;;;2602810;54;20034;31
2023/05/14 22:30:49;;;;;;;14.90;13.40;;;15.20;99.90;;;;;;2602964;54;20889;31
2023/05/14 22:43:47;;;;;;;19.48;15.52;;;15.10;99.90;;;;;;2600344;54;20014;31
2023/05/14 23:42:33;;;;;;;18.80;15.98;;;14.60;99.90;;;;;;2608599;39;20939;31
2023/05/14 23:52:05;;;;;;;17.50;14.73;;;14.50;99.90;;;;;;2602546;54;20759;31
2023/05/14 23:58:16;;;;;;;;;;;14.40;99.90;;;;;;2603156;54;20071;31
